Time;durP1;ratioP1;P1;durP2;ratioP2;P2;SDS_P1;SDS_P2;PMS_P1;PMS_P2;Temp;Humidity;BMP_temperature;BMP_pressure;BME280_temperature;BME280_humidity;BME280_pressure;Samples;Min_cycle;Max_cycle;Signal;HPM_P1;HPM_P2
2021/12/04 00:02:05;;;;;;;1.85;0.55;;;12.00;91.10;;;;;;4967124;28;20391;-94
2021/12/04 00:04:35;;;;;;;0.95;0.30;;;12.00;91.10;;;;;;4964437;28;20041;-96
2021/12/04 00:07:04;;;;;;;1.80;0.47;;;12.00;91.20;;;;;;4981422;28;20038;-94
2021/12/04 00:09:30;;;;;;;0.13;0.03;;;12.00;91.20;;;;;;4980734;28;20042;-93
2021/12/04 00:12:00;;;;;;;2.45;0.30;;;12.10;91.20;;;;;;4972943;28;20035;-94
2021/12/04 00:14:26;;;;;;;0.63;0.30;;;12.10;91.30;;;;;;5001142;28;20041;-92
2021/12/04 00:16:53;;;;;;;4.05;0.25;;;12.10;91.30;;;;;;4978899;28;20491;-94
2021/12/04 00:19:19;;;;;;;2.80;0.52;;;12.10;91.40;;;;;;4981961;28;20041;-94
2021/12/04 00:21:45;;;;;;;1.42;0.50;;;12.10;91.40;;;;;;4968234;28;20030;-96
2021/12/04 00:24:11;;;;;;;1.80;0.40;;;12.10;91.40;;;;;;4991386;28;20029;-92
2021/12/04 00:26:37;;;;;;;1.25;0.20;;;12.10;91.40;;;;;;4975455;28;20045;-94
2021/12/04 00:29:04;;;;;;;1.65;0.28;;;12.20;91.40;;;;;;4997438;28;20260;-94
2021/12/04 00:31:30;;;;;;;0.43;0.20;;;12.30;91.40;;;;;;4990548;28;20041;-96
2021/12/04 00:33:56;;;;;;;1.35;0.30;;;12.20;91.70;;;;;;4962303;28;20558;-93
2021/12/04 00:36:35;;;;;;;0.85;0.20;;;12.20;91.40;;;;;;4998077;28;20033;-96
2021/12/04 00:49:59;;;;;;;1.33;0.20;;;12.30;91.40;;;;;;4992295;28;20048;-95
2021/12/04 00:52:25;;;;;;;1.45;0.30;;;12.30;91.40;;;;;;4983246;28;20525;-94
2021/12/04 00:54:50;;;;;;;3.72;0.55;;;12.30;91.40;;;;;;4964562;28;20041;-93
2021/12/04 00:57:17;;;;;;;1.45;0.35;;;12.30;91.40;;;;;;4983900;28;20083;-94
2021/12/04 00:59:42;;;;;;;0.28;0.08;;;12.30;91.50;;;;;;4959515;28;20029;-94
2021/12/04 01:02:08;;;;;;;0.70;0.45;;;12.40;91.60;;;;;;4963099;28;20116;-92
2021/12/04 01:04:34;;;;;;;0.57;0.25;;;12.40;91.60;;;;;;4994797;28;20038;-93
2021/12/04 01:07:00;;;;;;;0.10;0.00;;;12.40;91.50;;;;;;4968445;28;20403;-95
2021/12/04 01:09:27;;;;;;;0.32;0.20;;;12.40;91.50;;;;;;4990254;28;20034;-93
2021/12/04 01:11:54;;;;;;;0.40;0.10;;;12.40;91.50;;;;;;4987000;28;20586;-92
2021/12/04 01:14:24;;;;;;;0.57;0.38;;;12.40;91.50;;;;;;4973078;28;20072;-93
2021/12/04 01:16:50;;;;;;;0.68;0.35;;;12.40;91.50;;;;;;4995191;28;20033;-94
2021/12/04 01:19:19;;;;;;;3.75;1.75;;;12.50;91.40;;;;;;4989311;28;20046;-94
2021/12/04 01:21:46;;;;;;;2.80;0.40;;;12.60;91.50;;;;;;4993220;28;20499;-94
2021/12/04 01:24:12;;;;;;;0.70;0.20;;;12.50;91.40;;;;;;4974992;28;20036;-93
2021/12/04 01:26:39;;;;;;;0.52;0.20;;;12.50;91.50;;;;;;4982429;28;20038;-94
2021/12/04 01:29:05;;;;;;;0.30;0.17;;;12.80;91.50;;;;;;4968356;28;20744;-94
2021/12/04 01:31:31;;;;;;;0.28;0.20;;;12.50;91.40;;;;;;4975474;28;20479;-93
2021/12/04 01:33:57;;;;;;;3.72;0.77;;;12.60;91.50;;;;;;4985160;28;20044;-93
2021/12/04 01:36:24;;;;;;;2.35;0.90;;;12.60;91.50;;;;;;4995121;28;20505;-95
2021/12/04 01:38:50;;;;;;;0.93;0.40;;;12.60;91.50;;;;;;4985279;28;20038;-95
2021/12/04 01:41:16;;;;;;;1.05;0.65;;;12.60;91.50;;;;;;4979145;28;20026;-94
2021/12/04 01:43:42;;;;;;;1.52;0.70;;;12.60;91.50;;;;;;4974411;28;20061;-92
2021/12/04 01:46:08;;;;;;;1.08;0.50;;;12.60;91.40;;;;;;4994685;28;20092;-94
2021/12/04 01:48:34;;;;;;;0.57;0.25;;;12.60;91.40;;;;;;4983347;28;20026;-94
2021/12/04 01:51:00;;;;;;;1.30;0.20;;;12.60;91.50;;;;;;4980703;28;20021;-94
2021/12/04 01:53:27;;;;;;;0.30;0.10;;;12.90;91.50;;;;;;4997886;28;20060;-94
2021/12/04 01:55:56;;;;;;;0.82;0.22;;;12.60;91.40;;;;;;4991385;28;20657;-92
2021/12/04 01:58:22;;;;;;;1.17;0.85;;;12.70;91.40;;;;;;4976746;28;21128;-94
2021/12/04 02:00:49;;;;;;;3.10;0.50;;;12.70;91.50;;;;;;5004791;28;20028;-93
2021/12/04 02:03:16;;;;;;;1.42;0.40;;;12.60;91.40;;;;;;4974906;28;20034;-92
2021/12/04 02:05:42;;;;;;;0.20;0.20;;;12.70;91.40;;;;;;4991472;28;20056;-94
2021/12/04 02:08:12;;;;;;;0.73;0.20;;;12.70;91.40;;;;;;4978851;28;20120;-94
2021/12/04 02:10:38;;;;;;;1.00;0.35;;;12.70;91.70;;;;;;4985970;28;20054;-94
2021/12/04 02:13:04;;;;;;;0.47;0.20;;;12.80;91.40;;;;;;4991625;28;20163;-94
2021/12/04 02:15:30;;;;;;;0.90;0.35;;;12.70;91.40;;;;;;4985515;28;20515;-91
2021/12/04 02:17:56;;;;;;;2.00;0.30;;;12.70;91.40;;;;;;4986210;28;20033;-94
2021/12/04 02:20:27;;;;;;;1.00;0.30;;;13.00;91.40;;;;;;4976006;28;20049;-93
2021/12/04 02:22:55;;;;;;;2.60;0.32;;;12.70;91.30;;;;;;4991025;28;20029;-94
2021/12/04 02:25:21;;;;;;;0.82;0.30;;;12.70;91.30;;;;;;4983785;28;20045;-94
2021/12/04 02:27:47;;;;;;;1.45;0.47;;;12.80;91.40;;;;;;4993618;28;20037;-93
2021/12/04 02:30:24;;;;;;;0.30;0.17;;;12.80;91.30;;;;;;4985698;28;20052;-93
2021/12/04 02:32:52;;;;;;;0.20;0.20;;;12.80;91.30;;;;;;4969458;28;20038;-93
2021/12/04 02:35:19;;;;;;;1.10;0.30;;;12.80;91.30;;;;;;4977063;28;20561;-93
2021/12/04 02:37:46;;;;;;;0.25;0.20;;;12.80;91.30;;;;;;4989926;28;20037;-95
2021/12/04 02:40:24;;;;;;;0.35;0.17;;;12.80;91.30;;;;;;4971402;28;20034;-92
2021/12/04 02:42:51;;;;;;;2.53;0.10;;;12.80;91.40;;;;;;4994892;28;20032;-93
2021/12/04 02:45:17;;;;;;;0.43;0.17;;;12.80;91.30;;;;;;4974985;28;20038;-92
2021/12/04 02:47:43;;;;;;;1.48;0.30;;;12.80;91.30;;;;;;4991953;28;20513;-94
2021/12/04 02:50:12;;;;;;;1.10;0.30;;;12.80;91.30;;;;;;4971532;28;20030;-94
2021/12/04 02:52:39;;;;;;;0.17;0.10;;;12.80;91.30;;;;;;4988428;28;20116;-94
2021/12/04 02:55:06;;;;;;;0.20;0.13;;;12.90;91.60;;;;;;4976978;28;20045;-94
2021/12/04 02:57:34;;;;;;;3.40;0.38;;;12.90;91.30;;;;;;4988876;28;20498;-93
2021/12/04 02:59:59;;;;;;;0.47;0.17;;;13.10;91.30;;;;;;4995695;28;20304;-92
2021/12/04 03:02:25;;;;;;;0.32;0.10;;;12.90;91.30;;;;;;4984642;28;20124;-94
2021/12/04 03:04:57;;;;;;;0.63;0.25;;;13.20;91.40;;;;;;4988311;28;20176;-94
2021/12/04 03:07:26;;;;;;;0.88;0.57;;;13.20;91.40;;;;;;4989173;28;20018;-95
2021/12/04 03:09:52;;;;;;;2.83;0.15;;;12.90;91.30;;;;;;4991995;28;20474;-93
2021/12/04 03:12:22;;;;;;;0.13;0.10;;;13.20;91.30;;;;;;4998849;28;20149;-94
2021/12/04 03:14:48;;;;;;;1.65;0.10;;;12.90;91.30;;;;;;4996947;28;20074;-94
2021/12/04 03:17:17;;;;;;;1.48;0.32;;;12.90;91.30;;;;;;5001830;28;20060;-92
2021/12/04 03:19:43;;;;;;;0.47;0.22;;;12.90;91.30;;;;;;4961575;28;20058;-93
2021/12/04 03:22:09;;;;;;;0.77;0.28;;;12.90;91.30;;;;;;4954814;28;20031;-94
2021/12/04 03:24:39;;;;;;;2.17;0.28;;;13.00;91.40;;;;;;4963688;28;20072;-94
2021/12/04 03:27:05;;;;;;;0.32;0.10;;;13.20;91.40;;;;;;4982524;28;20033;-93
2021/12/04 03:29:33;;;;;;;0.77;0.22;;;12.90;91.30;;;;;;4968357;28;20921;-92
2021/12/04 03:42:25;;;;;;;6.70;3.75;;;13.00;91.30;;;;;;5001348;28;20505;-92
2021/12/04 03:44:51;;;;;;;6.95;3.97;;;13.00;91.30;;;;;;4963321;28;20040;-94
2021/12/04 03:47:19;;;;;;;4.80;1.27;;;13.20;91.30;;;;;;4963927;28;20037;-94
2021/12/04 03:49:46;;;;;;;2.70;1.20;;;13.10;91.30;;;;;;4966302;28;20530;-94
2021/12/04 03:52:12;;;;;;;2.60;1.10;;;13.20;91.30;;;;;;4980805;28;20088;-93
2021/12/04 03:54:38;;;;;;;1.52;0.60;;;13.20;91.30;;;;;;4984042;28;20061;-91
2021/12/04 03:57:06;;;;;;;0.60;0.40;;;13.00;91.30;;;;;;4964847;28;20564;-94
2021/12/04 03:59:36;;;;;;;2.72;0.20;;;13.00;91.20;;;;;;4981772;28;20041;-93
2021/12/04 04:02:04;;;;;;;0.63;0.32;;;13.00;91.20;;;;;;4961838;28;20034;-94
2021/12/04 04:04:30;;;;;;;0.40;0.13;;;13.10;91.20;;;;;;4983767;28;20753;-95
2021/12/04 04:06:58;;;;;;;0.20;0.10;;;13.00;91.20;;;;;;4995461;28;20117;-92
2021/12/04 04:09:24;;;;;;;0.32;0.10;;;13.00;91.20;;;;;;4981981;28;20033;-91
2021/12/04 04:11:50;;;;;;;0.10;0.10;;;13.00;91.20;;;;;;4965426;28;20055;-92
2021/12/04 04:14:15;;;;;;;0.13;0.00;;;13.00;91.20;;;;;;4985945;28;20125;-93
2021/12/04 04:16:41;;;;;;;0.70;0.20;;;13.10;91.30;;;;;;4988446;28;20040;-92
2021/12/04 04:19:08;;;;;;;0.22;0.10;;;13.10;91.30;;;;;;5004199;28;20038;-95
2021/12/04 04:21:44;;;;;;;0.20;0.10;;;13.00;91.20;;;;;;4965502;28;20065;-94
2021/12/04 04:24:13;;;;;;;0.73;0.28;;;13.10;91.30;;;;;;4978084;28;20030;-94
2021/12/04 04:26:40;;;;;;;0.32;0.20;;;13.10;91.30;;;;;;4980898;28;20023;-93
2021/12/04 04:29:07;;;;;;;0.10;0.10;;;13.10;91.30;;;;;;4976957;28;20038;-94
2021/12/04 04:31:34;;;;;;;0.10;0.10;;;13.10;91.20;;;;;;4981024;28;20849;-94
2021/12/04 04:34:05;;;;;;;0.00;0.00;;;13.10;91.20;;;;;;4982071;28;20034;-94
2021/12/04 04:39:43;;;;;;;0.13;0.10;;;13.20;91.30;;;;;;4993296;28;20053;-93
2021/12/04 04:59:32;;;;;;;0.60;0.25;;;13.30;91.20;;;;;;4995606;28;20814;-93
2021/12/04 05:12:36;;;;;;;1.98;0.30;;;13.10;91.00;;;;;;4989533;28;20114;-93
2021/12/04 05:15:12;;;;;;;0.38;0.10;;;13.20;91.10;;;;;;4969843;28;20057;-94
2021/12/04 05:17:53;;;;;;;0.88;0.30;;;13.10;91.00;;;;;;4996374;28;20046;-95
2021/12/04 05:20:34;;;;;;;0.93;0.30;;;13.10;91.00;;;;;;4990972;28;20263;-94
2021/12/04 05:23:00;;;;;;;0.45;0.15;;;13.00;91.00;;;;;;4994023;28;20362;-93
2021/12/04 05:25:27;;;;;;;0.45;0.10;;;13.40;91.10;;;;;;4982507;28;20042;-93
2021/12/04 05:27:53;;;;;;;0.17;0.10;;;13.10;91.30;;;;;;4973177;28;20034;-96
2021/12/04 05:30:19;;;;;;;0.10;0.10;;;13.10;91.00;;;;;;4985082;28;20048;-94
2021/12/04 05:32:45;;;;;;;1.80;0.35;;;13.10;91.00;;;;;;4978998;28;20029;-94
2021/12/04 05:35:10;;;;;;;0.65;0.25;;;13.10;91.00;;;;;;4981131;28;20478;-92
2021/12/04 05:37:36;;;;;;;0.45;0.17;;;13.20;91.00;;;;;;4992785;28;20029;-94
2021/12/04 05:40:03;;;;;;;1.23;0.40;;;13.10;91.00;;;;;;4989587;28;20041;-94
2021/12/04 05:42:29;;;;;;;2.50;0.50;;;13.10;91.00;;;;;;4975501;28;20026;-94
2021/12/04 05:44:55;;;;;;;0.10;0.10;;;13.10;91.00;;;;;;4989048;28;20068;-95
2021/12/04 05:47:27;;;;;;;0.28;0.10;;;13.20;91.00;;;;;;4985767;28;20029;-96
2021/12/04 05:55:19;;;;;;;0.75;0.22;;;13.10;91.00;;;;;;5008398;28;20060;-96
2021/12/04 05:57:44;;;;;;;1.23;0.40;;;13.10;91.00;;;;;;4967931;28;20052;-96
2021/12/04 06:00:16;;;;;;;3.85;1.20;;;13.10;91.00;;;;;;4977229;28;20037;-95
2021/12/04 06:02:42;;;;;;;1.42;0.55;;;13.10;91.00;;;;;;4986365;28;20161;-94
2021/12/04 06:05:08;;;;;;;0.90;0.38;;;13.10;91.00;;;;;;4983455;28;20164;-92
2021/12/04 06:07:34;;;;;;;0.40;0.30;;;13.10;91.00;;;;;;4997908;28;20080;-93
2021/12/04 06:09:59;;;;;;;0.93;0.50;;;13.10;91.00;;;;;;4973017;28;20083;-95
2021/12/04 06:12:25;;;;;;;0.65;0.30;;;13.10;91.00;;;;;;4980786;28;20712;-95
2021/12/04 06:14:51;;;;;;;0.30;0.20;;;13.10;91.00;;;;;;4982588;28;20049;-91
2021/12/04 06:17:22;;;;;;;0.38;0.20;;;13.10;91.00;;;;;;4985060;28;20065;-94
2021/12/04 06:22:42;;;;;;;0.75;0.38;;;13.10;91.00;;;;;;4991981;28;20134;-95
2021/12/04 06:25:16;;;;;;;0.22;0.20;;;13.20;91.00;;;;;;4983589;28;20030;-94
2021/12/04 06:27:43;;;;;;;0.20;0.20;;;13.30;91.30;;;;;;4986963;28;20033;-94
2021/12/04 06:30:13;;;;;;;0.10;0.05;;;13.10;91.00;;;;;;4978671;28;20799;-96
2021/12/04 06:32:39;;;;;;;1.30;0.38;;;13.10;91.00;;;;;;4980011;28;20056;-94
2021/12/04 06:35:09;;;;;;;1.20;0.32;;;13.10;91.00;;;;;;4979876;28;20026;-95
2021/12/04 06:37:35;;;;;;;0.52;0.20;;;13.10;91.00;;;;;;4981645;28;20514;-94
2021/12/04 06:40:02;;;;;;;0.50;0.30;;;13.30;91.10;;;;;;4992894;28;20035;-95
2021/12/04 06:42:28;;;;;;;0.55;0.30;;;13.10;91.10;;;;;;4972184;28;20141;-95
2021/12/04 06:44:56;;;;;;;0.47;0.17;;;13.20;91.10;;;;;;4992809;28;20597;-91
2021/12/04 06:47:23;;;;;;;1.77;0.17;;;13.10;91.10;;;;;;4984158;28;20049;-94
2021/12/04 06:49:51;;;;;;;3.30;0.52;;;13.10;91.10;;;;;;4964307;28;20045;-94
2021/12/04 06:52:23;;;;;;;0.30;0.20;;;13.20;91.10;;;;;;4982629;28;20030;-95
2021/12/04 06:54:57;;;;;;;0.50;0.30;;;13.10;91.10;;;;;;4967693;28;20510;-95
2021/12/04 06:57:23;;;;;;;0.25;0.03;;;13.10;91.10;;;;;;4962926;28;20037;-96
2021/12/04 06:59:52;;;;;;;0.63;0.20;;;13.10;91.10;;;;;;4979868;28;20447;-94
2021/12/04 07:02:19;;;;;;;0.20;0.08;;;13.20;91.10;;;;;;4974596;28;20065;-96
2021/12/04 07:04:45;;;;;;;1.63;0.40;;;13.20;91.10;;;;;;4978717;28;20124;-95
2021/12/04 07:07:12;;;;;;;0.47;0.22;;;13.10;91.10;;;;;;4965162;28;20129;-95
2021/12/04 07:09:39;;;;;;;0.65;0.47;;;13.20;91.10;;;;;;4987932;28;20042;-95
2021/12/04 07:12:06;;;;;;;0.20;0.20;;;13.10;91.10;;;;;;4977151;28;20034;-94
2021/12/04 07:14:32;;;;;;;0.95;0.20;;;13.20;91.10;;;;;;4968556;28;20137;-93
2021/12/04 07:17:01;;;;;;;0.65;0.20;;;13.20;91.10;;;;;;4980046;28;20384;-95
2021/12/04 07:19:27;;;;;;;0.70;0.30;;;13.20;91.10;;;;;;4993716;28;20061;-95
2021/12/04 07:21:56;;;;;;;0.65;0.30;;;13.20;91.10;;;;;;4978162;28;20023;-95
2021/12/04 07:24:22;;;;;;;0.40;0.20;;;13.20;91.10;;;;;;4989069;28;20049;-94
2021/12/04 07:26:48;;;;;;;1.00;0.20;;;13.20;91.10;;;;;;4981435;28;20033;-94
2021/12/04 07:29:13;;;;;;;0.10;0.10;;;13.20;91.10;;;;;;4966391;28;20534;-93
2021/12/04 07:31:41;;;;;;;0.85;0.15;;;13.10;91.00;;;;;;4985417;28;20125;-93
2021/12/04 07:34:07;;;;;;;0.70;0.20;;;13.20;91.10;;;;;;4989390;28;20109;-94
2021/12/04 07:36:34;;;;;;;0.32;0.20;;;13.10;91.10;;;;;;4968048;28;20053;-92
2021/12/04 07:39:01;;;;;;;0.60;0.32;;;13.20;91.10;;;;;;4987067;28;20053;-93
2021/12/04 07:41:28;;;;;;;1.10;0.40;;;13.20;91.10;;;;;;4962985;28;20042;-94
2021/12/04 07:43:54;;;;;;;0.65;0.25;;;13.20;91.10;;;;;;4986157;28;20056;-94
2021/12/04 07:46:20;;;;;;;1.45;0.45;;;13.20;91.10;;;;;;4983822;28;20044;-92
2021/12/04 07:48:46;;;;;;;2.10;0.60;;;13.20;91.00;;;;;;4972052;28;20163;-94
2021/12/04 07:51:14;;;;;;;1.77;0.75;;;13.20;91.00;;;;;;4969691;28;20030;-92
2021/12/04 07:53:40;;;;;;;2.13;1.08;;;13.20;91.00;;;;;;4984602;28;20517;-93
2021/12/04 07:56:07;;;;;;;1.13;0.40;;;13.20;91.10;;;;;;4991433;28;20062;-95
2021/12/04 07:58:33;;;;;;;0.70;0.40;;;13.10;91.10;;;;;;4992001;28;20124;-91
2021/12/04 08:00:59;;;;;;;1.52;0.55;;;13.10;91.10;;;;;;4974153;28;20038;-94
2021/12/04 08:03:25;;;;;;;1.23;0.50;;;13.10;91.10;;;;;;4996375;28;20087;-94
2021/12/04 08:05:51;;;;;;;0.22;0.10;;;13.10;91.10;;;;;;4986233;28;20544;-94
2021/12/04 08:08:17;;;;;;;1.95;0.40;;;13.10;91.00;;;;;;4982990;28;20113;-90
2021/12/04 08:10:43;;;;;;;2.05;0.52;;;13.10;91.10;;;;;;4977400;28;20094;-93
2021/12/04 08:13:09;;;;;;;1.67;0.60;;;13.00;91.10;;;;;;4990710;28;20040;-93
2021/12/04 08:15:38;;;;;;;1.92;0.80;;;13.00;91.10;;;;;;4971116;28;20042;-93
2021/12/04 08:18:06;;;;;;;0.88;0.43;;;13.00;91.10;;;;;;4995192;28;20030;-94
2021/12/04 08:20:32;;;;;;;1.92;0.52;;;13.00;91.10;;;;;;4963977;28;20046;-93
2021/12/04 08:22:58;;;;;;;2.85;0.60;;;13.00;91.20;;;;;;4960869;28;20038;-94
2021/12/04 08:25:25;;;;;;;2.30;0.40;;;13.00;91.20;;;;;;4949448;28;20411;-91
2021/12/04 08:27:52;;;;;;;1.33;0.63;;;12.90;91.10;;;;;;4967897;28;20030;-94
2021/12/04 08:30:22;;;;;;;2.42;0.70;;;12.90;91.10;;;;;;4954113;28;20037;-91
2021/12/04 08:32:52;;;;;;;1.13;0.47;;;13.30;91.20;;;;;;4977919;28;20030;-92
2021/12/04 08:35:18;;;;;;;2.38;0.85;;;12.90;91.10;;;;;;4951121;28;20128;-91
2021/12/04 08:37:46;;;;;;;2.28;0.70;;;12.90;91.10;;;;;;4973526;28;20034;-93
2021/12/04 08:40:14;;;;;;;3.30;0.73;;;12.90;91.00;;;;;;4949555;28;20051;-93
2021/12/04 08:42:42;;;;;;;1.98;0.35;;;12.90;91.00;;;;;;4975671;28;20043;-93
2021/12/04 08:45:09;;;;;;;3.33;0.65;;;12.90;90.90;;;;;;4966411;28;20449;-93
2021/12/04 08:47:37;;;;;;;2.10;0.50;;;12.90;90.90;;;;;;4952143;28;20030;-93
2021/12/04 08:50:06;;;;;;;3.20;0.60;;;13.10;90.80;;;;;;4957560;28;20031;-94
2021/12/04 08:52:31;;;;;;;1.33;0.57;;;12.90;90.70;;;;;;4951520;28;20026;-93
2021/12/04 08:54:57;;;;;;;1.52;0.57;;;12.80;90.50;;;;;;4965852;28;20041;-93
2021/12/04 08:57:23;;;;;;;1.23;0.50;;;12.80;90.40;;;;;;4948100;28;20396;-93
2021/12/04 08:59:49;;;;;;;3.08;1.05;;;12.80;90.30;;;;;;4966170;28;20057;-93
2021/12/04 09:02:17;;;;;;;2.67;0.60;;;13.00;90.20;;;;;;4975900;28;20192;-94
2021/12/04 09:04:44;;;;;;;0.73;0.43;;;12.80;89.80;;;;;;4973209;28;20029;-91
2021/12/04 09:07:11;;;;;;;1.75;0.70;;;12.70;89.70;;;;;;4978912;28;20034;-94
2021/12/04 09:09:36;;;;;;;3.25;0.60;;;12.70;89.40;;;;;;4967428;28;20034;-93
2021/12/04 09:12:08;;;;;;;3.03;0.50;;;12.70;89.10;;;;;;4954975;28;20049;-93
2021/12/04 09:14:37;;;;;;;6.03;0.68;;;12.70;88.80;;;;;;4967526;28;20486;-91
2021/12/04 09:17:06;;;;;;;2.40;0.50;;;12.60;88.50;;;;;;4949386;28;20062;-93
2021/12/04 09:19:32;;;;;;;0.90;0.40;;;12.60;88.30;;;;;;4988516;28;20809;-93
2021/12/04 09:21:58;;;;;;;2.60;0.50;;;12.60;88.20;;;;;;4945859;28;20066;-92
2021/12/04 09:24:37;;;;;;;3.30;0.57;;;12.60;87.90;;;;;;4968608;28;20031;-91
2021/12/04 10:34:31;;;;;;;3.35;1.08;;;12.50;84.80;;;;;;5004646;28;20525;-94
2021/12/04 10:37:09;;;;;;;1.30;0.60;;;12.60;84.50;;;;;;4992389;28;20120;-94
2021/12/04 10:39:36;;;;;;;1.55;0.95;;;12.50;84.80;;;;;;4993160;28;20045;-94
2021/12/04 10:42:07;;;;;;;3.28;0.80;;;12.70;84.70;;;;;;4970622;28;20407;-94
2021/12/04 10:44:44;;;;;;;1.65;0.47;;;12.50;83.80;;;;;;4978083;28;20022;-93
2021/12/04 10:47:15;;;;;;;1.33;0.47;;;12.80;84.00;;;;;;4982560;28;20065;-94
2021/12/04 10:53:15;;;;;;;1.40;0.60;;;12.50;83.00;;;;;;4987044;28;20050;-94
2021/12/04 11:39:39;;;;;;;1.15;0.70;;;12.10;80.80;;;;;;5003011;28;20367;-92
2021/12/04 11:45:12;;;;;;;4.30;1.20;;;12.10;80.70;;;;;;4988998;28;20060;-91
2021/12/04 11:47:49;;;;;;;7.40;1.48;;;12.10;80.50;;;;;;4981219;28;20081;-91
2021/12/04 11:50:23;;;;;;;10.07;1.30;;;12.10;79.90;;;;;;4984984;28;20031;-92
2021/12/04 11:52:56;;;;;;;4.47;1.10;;;12.10;79.60;;;;;;5002946;28;20491;-93
2021/12/04 11:55:26;;;;;;;8.45;1.98;;;12.00;79.40;;;;;;4980148;28;20495;-91
2021/12/04 11:57:53;;;;;;;9.65;3.60;;;12.00;79.30;;;;;;4967151;28;20037;-91
2021/12/04 12:00:27;;;;;;;6.95;1.45;;;12.00;79.10;;;;;;4982735;28;20121;-92
2021/12/04 12:03:12;;;;;;;9.23;2.00;;;12.00;79.70;;;;;;5002323;28;20036;-92
2021/12/04 12:06:01;;;;;;;7.00;1.92;;;12.00;78.80;;;;;;4997369;28;20056;-92
2021/12/04 12:08:29;;;;;;;7.07;1.70;;;12.00;78.70;;;;;;4988450;28;20025;-92
2021/12/04 12:11:00;;;;;;;8.80;2.38;;;12.00;78.80;;;;;;4999872;28;20045;-92
2021/12/04 12:13:36;;;;;;;9.77;2.13;;;12.00;78.80;;;;;;5002338;28;20126;-94
2021/12/04 12:16:10;;;;;;;10.73;1.65;;;12.00;78.50;;;;;;5001234;28;20029;-92
2021/12/04 12:19:09;;;;;;;9.47;2.00;;;12.10;78.50;;;;;;4972343;28;20029;-91
2021/12/04 12:33:19;;;;;;;9.40;2.03;;;12.00;77.70;;;;;;5015697;28;20080;-92
2021/12/04 12:36:10;;;;;;;8.48;0.98;;;12.00;77.50;;;;;;5014769;28;20045;-93
2021/12/04 12:38:57;;;;;;;5.30;1.05;;;11.90;76.20;;;;;;4978726;28;20049;-92
2021/12/04 12:41:37;;;;;;;4.15;1.13;;;11.90;76.10;;;;;;5014612;28;20042;-93
2021/12/04 12:44:22;;;;;;;4.70;1.33;;;11.80;76.00;;;;;;5014195;28;20064;-90
2021/12/04 12:47:02;;;;;;;10.88;1.92;;;11.80;75.60;;;;;;4980585;28;20116;-93
2021/12/04 12:49:38;;;;;;;4.88;1.27;;;11.80;75.60;;;;;;5009862;28;20083;-93
2021/12/04 12:52:27;;;;;;;7.57;1.15;;;11.80;75.20;;;;;;4978469;28;20048;-92
2021/12/04 12:55:10;;;;;;;10.23;2.10;;;11.80;74.70;;;;;;4982455;28;20033;-92
2021/12/04 12:57:43;;;;;;;7.82;1.60;;;11.80;74.70;;;;;;4962720;28;20572;-92
2021/12/04 13:14:08;;;;;;;5.28;1.52;;;11.80;75.10;;;;;;5008415;28;20143;-92
2021/12/04 13:16:34;;;;;;;9.20;2.38;;;11.80;75.10;;;;;;5013214;28;20172;-90
2021/12/04 13:19:08;;;;;;;6.70;1.30;;;11.80;75.30;;;;;;4975284;28;20133;-93
2021/12/04 13:21:37;;;;;;;5.20;0.98;;;11.90;75.30;;;;;;4988913;28;20387;-91
2021/12/04 13:24:04;;;;;;;7.38;1.27;;;11.80;75.20;;;;;;4982146;28;20052;-92
2021/12/04 13:26:41;;;;;;;5.95;1.35;;;11.80;75.30;;;;;;4995569;28;20030;-93
2021/12/04 13:29:09;;;;;;;5.63;1.13;;;11.80;75.10;;;;;;4984230;28;20128;-93
2021/12/04 13:31:39;;;;;;;5.70;0.93;;;11.80;75.20;;;;;;4999710;28;20029;-91
2021/12/04 13:34:13;;;;;;;5.82;1.17;;;11.80;75.20;;;;;;5013478;28;20036;-91
2021/12/04 13:36:40;;;;;;;11.70;1.55;;;12.10;75.30;;;;;;5003129;28;20297;-92
2021/12/04 13:39:11;;;;;;;14.45;1.85;;;11.80;75.10;;;;;;4984143;28;20030;-94
2021/12/04 13:41:40;;;;;;;9.07;1.50;;;12.20;75.30;;;;;;4993105;28;20052;-92
2021/12/04 13:44:09;;;;;;;9.43;1.52;;;12.00;75.10;;;;;;4999250;28;20026;-94
2021/12/04 13:46:49;;;;;;;5.22;1.13;;;11.80;74.90;;;;;;4972996;28;20087;-95
2021/12/04 13:49:21;;;;;;;6.35;1.42;;;11.80;75.20;;;;;;4984553;28;20054;-92
2021/12/04 13:51:57;;;;;;;5.65;1.10;;;11.80;74.70;;;;;;4973286;28;20053;-94
2021/12/04 13:54:28;;;;;;;6.40;1.35;;;11.80;74.60;;;;;;4980220;28;20280;-96
2021/12/04 13:56:54;;;;;;;6.55;1.50;;;11.80;74.60;;;;;;4979570;28;21243;-94
2021/12/04 13:59:28;;;;;;;8.18;1.38;;;11.80;74.60;;;;;;4988388;28;20052;-94
2021/12/04 14:01:56;;;;;;;10.07;2.30;;;12.00;74.40;;;;;;4978145;28;20041;-94
2021/12/04 14:04:22;;;;;;;5.32;1.00;;;11.80;74.40;;;;;;4975201;28;20585;-93
2021/12/04 14:07:08;;;;;;;7.45;1.58;;;11.80;74.40;;;;;;5004245;28;20034;-90
2021/12/04 14:09:38;;;;;;;5.88;1.25;;;11.80;74.30;;;;;;4964938;28;20129;-93
2021/12/04 14:12:05;;;;;;;8.23;1.30;;;11.80;74.40;;;;;;4991904;28;20530;-92
2021/12/04 14:14:33;;;;;;;8.65;1.70;;;11.80;74.40;;;;;;5013387;28;20037;-90
2021/12/04 14:17:11;;;;;;;5.45;2.20;;;11.80;74.40;;;;;;4982175;28;20033;-91
2021/12/04 14:19:37;;;;;;;7.50;2.42;;;12.40;74.70;;;;;;4993385;28;20053;-91
2021/12/04 14:22:16;;;;;;;3.78;1.30;;;12.40;74.90;;;;;;5010578;28;20042;-89
2021/12/04 14:24:59;;;;;;;5.15;2.00;;;11.70;72.50;;;;;;5012298;28;20034;-91
2021/12/04 14:27:32;;;;;;;10.75;1.00;;;12.10;72.80;;;;;;4980971;28;20098;-92
2021/12/04 14:30:12;;;;;;;3.50;0.85;;;11.70;73.10;;;;;;4980127;28;20145;-90
2021/12/04 14:32:40;;;;;;;2.53;0.80;;;11.60;73.10;;;;;;4984598;28;20752;-91
2021/12/04 14:35:10;;;;;;;8.23;1.42;;;11.60;73.30;;;;;;4988400;28;20087;-91
2021/12/04 14:37:40;;;;;;;4.47;1.75;;;11.50;73.40;;;;;;4977961;28;20122;-91
2021/12/04 14:40:32;;;;;;;4.32;1.20;;;11.80;73.70;;;;;;4981174;28;20057;-91
2021/12/04 14:42:58;;;;;;;2.42;0.90;;;11.50;73.60;;;;;;4961054;28;20126;-90
2021/12/04 14:45:31;;;;;;;2.72;0.77;;;11.50;73.70;;;;;;4970231;28;20050;-90
2021/12/04 14:48:09;;;;;;;3.78;1.15;;;11.50;74.20;;;;;;4974892;28;20052;-91
2021/12/04 14:50:39;;;;;;;13.80;2.85;;;11.40;73.70;;;;;;4997553;28;20057;-89
2021/12/04 14:53:09;;;;;;;13.50;2.65;;;11.40;73.80;;;;;;4980316;28;20026;-90
2021/12/04 14:55:41;;;;;;;11.07;2.30;;;11.40;73.90;;;;;;4983016;28;20021;-91
2021/12/04 14:58:14;;;;;;;8.10;2.05;;;11.40;73.90;;;;;;4976056;28;20402;-91
2021/12/04 15:00:54;;;;;;;6.05;2.53;;;11.40;74.00;;;;;;4974355;28;20022;-90
2021/12/04 15:03:45;;;;;;;13.55;3.50;;;11.40;74.00;;;;;;4989391;28;20030;-91
2021/12/04 15:06:14;;;;;;;18.85;4.00;;;11.40;74.00;;;;;;4998258;28;20046;-91
2021/12/04 15:08:55;;;;;;;10.55;3.30;;;11.40;74.10;;;;;;4994539;28;20034;-91
2021/12/04 15:11:25;;;;;;;14.45;3.97;;;11.30;74.10;;;;;;4990915;28;20034;-90
2021/12/04 15:14:12;;;;;;;7.72;1.83;;;11.30;74.20;;;;;;4978986;28;20214;-91
2021/12/04 15:16:48;;;;;;;13.40;3.15;;;11.30;74.20;;;;;;4979943;28;20406;-90
2021/12/04 15:19:32;;;;;;;7.68;1.75;;;11.30;74.20;;;;;;4983576;28;20045;-91
2021/12/04 15:22:02;;;;;;;7.85;1.88;;;11.30;74.30;;;;;;4990461;28;20503;-90
2021/12/04 15:24:42;;;;;;;6.43;1.55;;;11.30;74.30;;;;;;5006647;28;20026;-94
2021/12/04 15:27:16;;;;;;;8.95;2.47;;;11.20;74.20;;;;;;4975527;28;20061;-90
2021/12/04 15:29:46;;;;;;;6.40;2.03;;;11.20;74.30;;;;;;4979920;28;20021;-90
2021/12/04 15:32:16;;;;;;;9.20;1.52;;;11.20;74.40;;;;;;5017247;28;20029;-90
2021/12/04 15:34:53;;;;;;;8.57;1.55;;;11.60;74.70;;;;;;4986371;28;20026;-92
2021/12/04 15:37:41;;;;;;;10.88;1.90;;;11.20;74.40;;;;;;5000929;28;20030;-88
2021/12/04 15:40:23;;;;;;;12.07;2.88;;;11.10;74.40;;;;;;4995586;28;20030;-90
2021/12/04 15:43:12;;;;;;;11.52;3.55;;;11.10;74.40;;;;;;5007546;28;20033;-88
2021/12/04 15:54:08;;;;;;;7.95;2.35;;;11.10;74.30;;;;;;4925186;29;20110;-90
2021/12/04 15:56:44;;;;;;;5.95;2.30;;;11.10;74.40;;;;;;4982881;28;20037;-89
2021/12/04 15:59:30;;;;;;;5.57;2.85;;;11.10;74.40;;;;;;4986499;28;20191;-91
2021/12/04 16:02:09;;;;;;;10.77;3.13;;;11.00;74.30;;;;;;4994056;28;20049;-89
2021/12/04 16:04:34;;;;;;;8.18;2.97;;;11.00;74.40;;;;;;4976486;28;20409;-88
2021/12/04 16:07:03;;;;;;;4.75;2.83;;;10.90;74.40;;;;;;4990151;28;20477;-90
2021/12/04 16:09:33;;;;;;;5.47;2.45;;;10.90;74.50;;;;;;4986206;28;20499;-90
2021/12/04 16:12:13;;;;;;;7.65;2.55;;;10.90;74.60;;;;;;4993960;28;20468;-89
2021/12/04 16:14:47;;;;;;;8.05;2.60;;;11.10;74.70;;;;;;4990867;28;20034;-90
2021/12/04 16:17:14;;;;;;;7.93;2.30;;;11.00;74.80;;;;;;4992366;28;20068;-90
2021/12/04 16:19:44;;;;;;;4.80;1.50;;;11.20;75.00;;;;;;4990975;28;20490;-89
2021/12/04 16:22:13;;;;;;;6.93;1.92;;;10.80;74.90;;;;;;4987231;28;20045;-89
2021/12/04 16:24:44;;;;;;;8.77;1.63;;;10.80;75.00;;;;;;4991569;28;20030;-90
2021/12/04 16:27:24;;;;;;;8.48;1.70;;;10.80;75.00;;;;;;4990054;28;20045;-90
2021/12/04 16:30:00;;;;;;;9.10;1.52;;;11.20;75.30;;;;;;4995007;28;20372;-88
2021/12/04 16:37:47;;;;;;;6.57;1.58;;;10.80;74.70;;;;;;5006760;28;20101;-90